createdAt,value
2023-02-11T00:01:26.903Z,44.19
2023-02-11T00:03:55.835Z,44.47
2023-02-11T00:06:24.945Z,44.23
2023-02-11T00:08:52.922Z,44.90
2023-02-11T00:11:24.618Z,44.19
2023-02-11T00:13:53.083Z,44.36
2023-02-11T00:16:21.792Z,44.58
2023-02-11T00:18:50.543Z,43.95
2023-02-11T00:21:21.828Z,43.15
2023-02-11T00:23:49.959Z,42.67
2023-02-11T00:26:21.669Z,43.47
2023-02-11T00:28:52.231Z,44.86
2023-02-11T00:31:22.598Z,44.99
2023-02-11T00:33:51.449Z,45.27
2023-02-11T00:36:27.305Z,46.20
2023-02-11T00:38:57.416Z,46.64
2023-02-11T00:41:26.288Z,46.81
2023-02-11T00:43:54.256Z,47.41
2023-02-11T00:46:22.938Z,46.38
2023-02-11T00:48:57.984Z,46.43
2023-02-11T00:51:27.853Z,46.59
2023-02-11T00:53:55.871Z,46.72
2023-02-11T00:56:24.327Z,46.87
2023-02-11T00:58:52.329Z,46.50
2023-02-11T01:01:20.519Z,45.76
2023-02-11T01:03:48.510Z,46.15
2023-02-11T01:06:17.053Z,46.37
2023-02-11T01:08:44.977Z,47.57
2023-02-11T01:11:15.954Z,46.86
2023-02-11T01:13:47.021Z,46.56
2023-02-11T01:16:17.703Z,47.11
2023-02-11T01:18:46.588Z,46.93
2023-02-11T01:21:15.165Z,47.09
2023-02-11T01:23:44.254Z,46.58
2023-02-11T01:26:13.150Z,46.23
2023-02-11T01:28:41.568Z,46.64
2023-02-11T01:31:09.948Z,46.28
2023-02-11T01:33:38.120Z,46.24
2023-02-11T01:36:08.123Z,47.07
2023-02-11T01:38:36.630Z,47.35
2023-02-11T01:41:10.521Z,47.43
2023-02-11T01:43:43.476Z,48.04
2023-02-11T01:46:18.602Z,48.34
2023-02-11T01:48:52.272Z,48.38
2023-02-11T01:51:30.897Z,48.24
2023-02-11T01:54:17.857Z,48.33
2023-02-11T01:57:08.305Z,48.52
2023-02-11T02:00:05.763Z,48.74
2023-02-11T02:02:43.771Z,48.95
2023-02-11T02:05:52.232Z,48.69
2023-02-11T02:08:39.744Z,48.47
2023-02-11T02:11:08.207Z,48.68
2023-02-11T02:13:38.485Z,48.99
2023-02-11T02:16:12.684Z,49.25
2023-02-11T02:18:50.053Z,49.60
2023-02-11T02:21:44.644Z,49.29
2023-02-11T02:24:33.648Z,49.13
2023-02-11T02:27:04.561Z,49.37
2023-02-11T02:29:53.872Z,50.17
2023-02-11T02:32:40.576Z,50.18
2023-02-11T02:35:42.861Z,49.88
2023-02-11T02:38:21.461Z,49.28
2023-02-11T02:40:55.331Z,49.43
2023-02-11T02:43:26.432Z,49.49
2023-02-11T02:45:54.761Z,49.72
2023-02-11T02:48:36.056Z,49.84
2023-02-11T02:51:33.087Z,49.95
2023-02-11T02:54:33.535Z,50.64
2023-02-11T02:57:22.917Z,50.01
2023-02-11T02:59:59.858Z,51.02
2023-02-11T03:02:35.257Z,50.19
2023-02-11T03:05:16.756Z,49.47
2023-02-11T03:08:08.649Z,49.00
2023-02-11T03:10:41.048Z,49.54
2023-02-11T03:13:09.119Z,49.79
2023-02-11T03:15:44.785Z,50.26
2023-02-11T03:18:16.453Z,49.81
2023-02-11T03:20:48.384Z,49.27
2023-02-11T03:23:28.187Z,49.08
2023-02-11T03:26:34.875Z,50.91
2023-02-11T03:29:03.754Z,50.64
2023-02-11T03:31:40.767Z,50.97
2023-02-11T03:34:35.121Z,51.31
2023-02-11T03:37:02.965Z,51.01
2023-02-11T03:39:39.643Z,50.04
2023-02-11T03:42:11.046Z,50.10
2023-02-11T03:44:50.427Z,50.77
2023-02-11T03:47:23.974Z,49.84
2023-02-11T03:49:53.695Z,49.80
2023-02-11T03:52:23.548Z,50.47
2023-02-11T03:54:56.466Z,51.43
2023-02-11T03:57:24.646Z,51.28
2023-02-11T03:59:54.082Z,50.30
2023-02-11T04:02:27.244Z,51.49
2023-02-11T04:04:55.887Z,51.15
2023-02-11T04:07:24.568Z,51.18
2023-02-11T04:09:53.265Z,52.25
2023-02-11T04:12:21.397Z,51.01
2023-02-11T04:14:49.254Z,50.69
2023-02-11T04:17:17.635Z,52.12
2023-02-11T04:19:45.575Z,52.73
2023-02-11T04:22:13.585Z,53.19
2023-02-11T04:24:41.585Z,53.01
2023-02-11T04:27:09.915Z,53.38
2023-02-11T04:29:37.975Z,54.30
2023-02-11T04:32:06.152Z,54.50
2023-02-11T04:34:34.095Z,53.82
2023-02-11T04:37:01.949Z,53.23
2023-02-11T04:39:29.885Z,53.51
2023-02-11T04:41:57.699Z,53.11
2023-02-11T04:44:25.642Z,53.46
2023-02-11T04:46:53.861Z,52.94
2023-02-11T04:49:21.984Z,52.76
2023-02-11T04:51:49.879Z,52.93
2023-02-11T04:54:18.228Z,52.23
2023-02-11T04:56:46.080Z,52.40
2023-02-11T04:59:13.980Z,52.24
2023-02-11T05:01:42.347Z,51.76
2023-02-11T05:04:10.325Z,52.62
2023-02-11T05:06:40.058Z,52.22
2023-02-11T05:09:08.316Z,51.80
2023-02-11T05:11:37.248Z,52.59
2023-02-11T05:14:05.854Z,52.76
2023-02-11T05:16:34.547Z,52.03
2023-02-11T05:19:02.348Z,51.63
2023-02-11T05:21:30.210Z,51.85
2023-02-11T05:23:58.108Z,51.47
2023-02-11T05:26:26.663Z,52.25
2023-02-11T05:28:54.428Z,52.79
2023-02-11T05:31:22.349Z,52.36
2023-02-11T05:33:50.227Z,52.40
2023-02-11T05:36:18.117Z,52.56
2023-02-11T05:38:45.877Z,52.29
2023-02-11T05:41:13.678Z,52.42
2023-02-11T05:43:41.495Z,51.25
2023-02-11T05:46:09.455Z,51.74
2023-02-11T05:48:37.342Z,51.94
2023-02-11T05:51:05.329Z,51.62
2023-02-11T05:53:33.118Z,50.95
2023-02-11T05:56:01.438Z,50.50
2023-02-11T05:58:29.450Z,51.28
2023-02-11T06:00:57.377Z,52.14
2023-02-11T06:03:25.466Z,52.77
2023-02-11T06:05:53.538Z,52.79
2023-02-11T06:08:21.637Z,51.57
2023-02-11T06:10:49.488Z,51.47
2023-02-11T06:13:18.867Z,52.28
2023-02-11T06:15:59.582Z,53.10
2023-02-11T06:18:27.658Z,52.95
2023-02-11T06:20:56.216Z,52.51
2023-02-11T06:23:24.049Z,52.97
2023-02-11T06:25:52.999Z,53.28
2023-02-11T06:28:21.233Z,53.25
2023-02-11T06:30:49.287Z,52.79
2023-02-11T06:33:17.220Z,52.32
2023-02-11T06:35:45.091Z,52.17
2023-02-11T06:38:13.060Z,52.63
2023-02-11T06:40:41.138Z,52.63
2023-02-11T06:43:08.997Z,52.79
2023-02-11T06:45:36.850Z,53.48
2023-02-11T06:48:04.819Z,53.24
2023-02-11T06:50:32.960Z,53.79
2023-02-11T06:53:00.945Z,53.82
2023-02-11T06:55:28.939Z,53.31
2023-02-11T06:57:57.014Z,53.63
2023-02-11T07:00:25.799Z,53.28
2023-02-11T07:02:53.898Z,53.34
2023-02-11T07:05:21.889Z,53.48
2023-02-11T07:07:49.846Z,53.64
2023-02-11T07:10:17.788Z,52.74
2023-02-11T07:12:45.854Z,52.68
2023-02-11T07:15:13.779Z,51.77
2023-02-11T07:17:41.691Z,51.97
2023-02-11T07:20:12.602Z,51.72
2023-02-11T07:22:40.500Z,50.78
2023-02-11T07:25:08.525Z,51.23
2023-02-11T07:27:36.598Z,50.37
2023-02-11T07:30:07.260Z,51.58
2023-02-11T07:32:35.444Z,50.88
2023-02-11T07:35:04.379Z,50.56
2023-02-11T07:37:34.784Z,49.64
2023-02-11T07:40:02.842Z,49.18
2023-02-11T07:42:30.716Z,48.86
2023-02-11T07:44:58.569Z,48.59
2023-02-11T07:47:26.521Z,48.53
2023-02-11T07:49:56.554Z,48.16
2023-02-11T07:52:24.966Z,47.63
2023-02-11T07:54:52.867Z,47.27
2023-02-11T07:57:20.822Z,44.80
2023-02-11T07:59:48.669Z,41.33
2023-02-11T08:02:16.591Z,37.02
2023-02-11T08:04:47.226Z,33.15
2023-02-11T08:07:16.979Z,32.52
2023-02-11T08:09:45.254Z,31.41
2023-02-11T08:12:13.304Z,30.41
2023-02-11T08:14:41.116Z,28.61
2023-02-11T08:17:08.915Z,27.81
2023-02-11T08:19:37.362Z,27.31
2023-02-11T08:22:05.268Z,26.35
2023-02-11T08:24:33.138Z,26.18
2023-02-11T08:27:00.953Z,26.47
2023-02-11T08:29:28.780Z,27.05
2023-02-11T08:31:56.738Z,27.40
2023-02-11T08:34:24.743Z,29.00
2023-02-11T08:36:52.711Z,31.01
2023-02-11T08:39:22.948Z,33.21
2023-02-11T08:41:56.832Z,34.30
2023-02-11T08:44:25.146Z,35.33
2023-02-11T08:46:53.940Z,35.83
2023-02-11T08:49:23.672Z,35.61
2023-02-11T08:51:51.673Z,35.45
2023-02-11T08:54:19.653Z,36.83
2023-02-11T08:56:52.301Z,37.05
2023-02-11T08:59:20.363Z,37.33
2023-02-11T09:01:48.693Z,36.90
2023-02-11T09:04:16.735Z,37.97
2023-02-11T09:06:44.639Z,39.29
2023-02-11T09:09:14.212Z,39.36
2023-02-11T09:11:43.312Z,38.09
2023-02-11T09:14:23.275Z,37.07
2023-02-11T09:16:51.963Z,36.02
2023-02-11T09:19:20.670Z,36.13
2023-02-11T09:21:48.607Z,37.09
2023-02-11T09:24:16.508Z,36.49
2023-02-11T09:26:44.727Z,35.08
2023-02-11T09:29:13.115Z,34.59
2023-02-11T09:31:41.108Z,34.09
2023-02-11T09:34:09.082Z,33.15
2023-02-11T09:36:39.291Z,31.44
2023-02-11T09:39:18.449Z,31.41
2023-02-11T09:41:46.262Z,31.53
2023-02-11T09:44:40.384Z,31.74
2023-02-11T09:47:30.238Z,31.23
2023-02-11T09:50:14.630Z,32.13
2023-02-11T09:53:07.374Z,32.13
2023-02-11T09:55:44.134Z,32.00
2023-02-11T09:58:35.346Z,31.61
2023-02-11T10:01:22.826Z,30.92
2023-02-11T10:04:05.153Z,29.72
2023-02-11T10:06:41.480Z,29.02
2023-02-11T10:09:43.080Z,29.17
2023-02-11T10:12:13.775Z,28.86
2023-02-11T10:15:11.471Z,29.49
2023-02-11T10:18:04.831Z,27.47
2023-02-11T10:20:49.336Z,28.23
2023-02-11T10:23:24.949Z,27.34
2023-02-11T10:25:54.971Z,26.50
2023-02-11T10:28:37.104Z,26.00
2023-02-11T10:31:11.979Z,24.58
2023-02-11T10:34:05.188Z,25.01
2023-02-11T10:36:40.181Z,25.67
2023-02-11T10:39:27.120Z,26.25
2023-02-11T10:41:59.915Z,27.32
2023-02-11T10:44:38.380Z,27.17
2023-02-11T10:47:22.767Z,27.38
2023-02-11T10:49:50.828Z,27.03
2023-02-11T10:52:24.861Z,27.55
2023-02-11T10:55:03.409Z,27.83
2023-02-11T10:57:38.163Z,26.64
2023-02-11T11:00:39.367Z,26.00
2023-02-11T11:03:29.122Z,23.83
2023-02-11T11:06:00.749Z,21.74
2023-02-11T11:08:47.554Z,21.72
2023-02-11T11:11:21.752Z,19.46
2023-02-11T11:13:52.731Z,18.95
2023-02-11T11:16:32.875Z,18.61
2023-02-11T11:19:06.571Z,18.38
2023-02-11T11:21:41.077Z,17.21
2023-02-11T11:24:16.901Z,17.55
2023-02-11T11:26:57.400Z,16.79
2023-02-11T11:29:35.840Z,17.57
2023-02-11T11:32:15.296Z,17.75
2023-02-11T11:34:48.904Z,16.69
2023-02-11T11:37:37.189Z,16.97
2023-02-11T11:40:23.776Z,15.37
2023-02-11T11:43:14.321Z,17.28
2023-02-11T11:45:56.746Z,18.85
2023-02-11T11:48:46.004Z,21.22
2023-02-11T11:51:13.996Z,21.82
2023-02-11T11:54:04.992Z,22.46
2023-02-11T11:56:37.092Z,23.58
2023-02-11T11:59:17.406Z,24.83
2023-02-11T12:02:02.394Z,24.75
2023-02-11T12:05:01.085Z,25.03
2023-02-11T12:07:56.802Z,25.40
2023-02-11T12:10:46.505Z,25.39
2023-02-11T12:13:32.685Z,25.38
2023-02-11T12:16:21.815Z,23.60
2023-02-11T12:19:17.262Z,21.86
2023-02-11T12:22:21.992Z,21.58
2023-02-11T12:25:08.242Z,23.48
2023-02-11T12:28:10.052Z,23.00
2023-02-11T12:30:57.185Z,23.06
2023-02-11T12:33:40.412Z,22.79
2023-02-11T12:36:15.316Z,22.35
2023-02-11T12:39:19.487Z,22.79
2023-02-11T12:42:15.174Z,24.01
2023-02-11T12:45:28.042Z,23.24
2023-02-11T12:48:26.495Z,20.78
2023-02-11T12:51:21.757Z,19.06
2023-02-11T12:54:24.129Z,16.98
2023-02-11T12:56:54.934Z,17.19
2023-02-11T12:59:25.495Z,16.88
2023-02-11T13:01:55.262Z,16.23
2023-02-11T13:04:29.235Z,16.07
2023-02-11T13:07:02.886Z,15.57
2023-02-11T13:09:39.397Z,14.38
2023-02-11T13:12:47.499Z,13.06
2023-02-11T13:15:16.595Z,13.07
2023-02-11T13:17:57.589Z,13.72
2023-02-11T13:20:36.184Z,16.04
2023-02-11T13:23:24.528Z,15.31
2023-02-11T13:26:05.838Z,14.19
2023-02-11T13:28:54.218Z,14.11
2023-02-11T13:31:27.096Z,13.51
2023-02-11T13:33:55.278Z,11.50
2023-02-11T13:36:26.579Z,10.54
2023-02-11T13:38:58.846Z,11.64
2023-02-11T13:41:31.309Z,11.08
2023-02-11T13:44:06.383Z,10.67
2023-02-11T13:46:59.499Z,11.58
2023-02-11T13:49:32.049Z,11.93
2023-02-11T13:52:03.785Z,10.78
2023-02-11T13:54:40.815Z,11.83
2023-02-11T13:57:20.565Z,11.35
2023-02-11T13:59:49.624Z,10.69
2023-02-11T14:02:36.150Z,10.42
2023-02-11T14:05:22.208Z,10.97
2023-02-11T14:08:41.840Z,11.50
2023-02-11T14:11:29.744Z,10.11
2023-02-11T14:14:14.732Z,9.74
2023-02-11T14:17:08.196Z,9.54
2023-02-11T14:19:44.747Z,10.79
2023-02-11T14:22:16.991Z,11.29
2023-02-11T14:25:01.299Z,10.31
2023-02-11T14:27:42.757Z,10.36
2023-02-11T14:30:23.559Z,10.31
2023-02-11T14:33:13.918Z,10.28
2023-02-11T14:36:01.898Z,10.34
2023-02-11T14:38:38.278Z,10.22
2023-02-11T14:41:21.313Z,10.54
2023-02-11T14:43:58.109Z,10.48
2023-02-11T14:46:27.988Z,10.89
2023-02-11T14:48:59.098Z,11.06
2023-02-11T14:51:40.717Z,11.59
2023-02-11T14:54:17.796Z,12.37
2023-02-11T14:56:47.079Z,12.39
2023-02-11T14:59:23.191Z,12.59
2023-02-11T15:01:54.753Z,12.86
2023-02-11T15:04:28.643Z,13.19
2023-02-11T15:06:59.678Z,13.31
2023-02-11T15:09:38.749Z,13.19
2023-02-11T15:12:15.927Z,13.08
2023-02-11T15:14:48.714Z,13.40
2023-02-11T15:17:21.348Z,13.85
2023-02-11T15:19:53.473Z,14.01
2023-02-11T15:22:26.379Z,14.39
2023-02-11T15:25:11.577Z,14.61
2023-02-11T15:27:58.829Z,15.59
2023-02-11T15:30:34.476Z,16.17
2023-02-11T15:33:25.710Z,16.74
2023-02-11T15:35:53.634Z,17.07
2023-02-11T15:38:21.471Z,17.26
2023-02-11T15:40:55.669Z,17.83
2023-02-11T15:43:23.690Z,19.09
2023-02-11T15:45:51.624Z,19.59
2023-02-11T15:48:24.482Z,20.38
2023-02-11T15:51:03.315Z,20.93
2023-02-11T15:53:40.717Z,20.93
2023-02-11T15:56:18.466Z,21.25
2023-02-11T15:58:49.823Z,21.77
2023-02-11T16:01:17.890Z,22.50
2023-02-11T16:03:51.080Z,22.42
2023-02-11T16:06:26.118Z,23.98
2023-02-11T16:09:11.361Z,25.63
2023-02-11T16:11:48.222Z,26.27
2023-02-11T16:14:31.285Z,26.87
2023-02-11T16:17:06.884Z,26.96
2023-02-11T16:19:36.336Z,27.76
2023-02-11T16:22:10.774Z,28.09
2023-02-11T16:24:39.733Z,28.52
2023-02-11T16:27:22.870Z,28.41
2023-02-11T16:29:52.180Z,28.49
2023-02-11T16:32:23.504Z,28.73
2023-02-11T16:34:52.673Z,29.00
2023-02-11T16:37:21.016Z,29.11
2023-02-11T16:39:48.933Z,29.16
2023-02-11T16:42:16.935Z,29.34
2023-02-11T16:44:44.866Z,29.83
2023-02-11T16:47:23.979Z,29.86
2023-02-11T16:49:52.277Z,30.33
2023-02-11T16:52:21.979Z,30.70
2023-02-11T16:54:49.961Z,30.40
2023-02-11T16:57:23.443Z,30.99
2023-02-11T16:59:52.523Z,31.18
2023-02-11T17:02:36.161Z,31.01
2023-02-11T17:05:07.303Z,31.43
2023-02-11T17:07:35.683Z,31.68
2023-02-11T17:10:03.897Z,31.54
2023-02-11T17:12:31.841Z,30.86
2023-02-11T17:15:00.041Z,31.37
2023-02-11T17:17:29.533Z,31.91
2023-02-11T17:19:57.553Z,32.17
2023-02-11T17:22:25.424Z,32.23
2023-02-11T17:24:56.076Z,32.24
2023-02-11T17:27:23.948Z,32.74
2023-02-11T17:29:51.902Z,33.21
2023-02-11T17:32:19.867Z,33.03
2023-02-11T17:34:47.987Z,33.20
2023-02-11T17:37:16.381Z,33.58
2023-02-11T17:39:44.903Z,33.50
2023-02-11T17:42:15.305Z,34.51
2023-02-11T17:44:44.580Z,35.22
2023-02-11T17:47:14.024Z,33.98
2023-02-11T17:49:42.318Z,34.78
2023-02-11T17:52:10.381Z,34.25
2023-02-11T17:54:38.755Z,33.68
2023-02-11T17:57:06.940Z,33.47
2023-02-11T17:59:35.837Z,33.52
2023-02-11T18:02:04.376Z,33.39
2023-02-11T18:04:32.374Z,33.23
2023-02-11T18:07:00.349Z,32.85
2023-02-11T18:09:28.288Z,33.22
2023-02-11T18:11:56.229Z,33.61
2023-02-11T18:14:24.519Z,33.51
2023-02-11T18:16:53.332Z,33.45
2023-02-11T18:19:21.714Z,34.49
2023-02-11T18:21:51.140Z,33.53
2023-02-11T18:24:19.114Z,34.47
2023-02-11T18:26:46.890Z,34.72
2023-02-11T18:29:14.880Z,35.58
2023-02-11T18:31:42.795Z,34.83
2023-02-11T18:34:12.166Z,34.77
2023-02-11T18:36:40.073Z,34.41
2023-02-11T18:39:07.935Z,35.00
2023-02-11T18:41:35.873Z,34.96
2023-02-11T18:44:05.140Z,35.98
2023-02-11T18:46:58.288Z,35.08
2023-02-11T18:49:26.506Z,35.03
2023-02-11T18:51:55.132Z,36.32
2023-02-11T18:54:23.112Z,37.01
2023-02-11T18:56:51.133Z,36.00
2023-02-11T18:59:19.099Z,35.73
2023-02-11T19:01:47.168Z,36.06
2023-02-11T19:04:20.293Z,37.16
2023-02-11T19:06:49.792Z,38.14
2023-02-11T19:09:20.901Z,38.39
2023-02-11T19:11:52.493Z,38.45
2023-02-11T19:14:27.422Z,38.82
2023-02-11T19:16:57.817Z,38.76
2023-02-11T19:19:29.015Z,39.24
2023-02-11T19:21:58.925Z,39.22
2023-02-11T19:24:28.663Z,39.44
2023-02-11T19:26:59.405Z,39.62
2023-02-11T19:29:28.708Z,39.96
2023-02-11T19:31:57.089Z,40.59
2023-02-11T19:34:25.471Z,40.99
2023-02-11T19:36:54.655Z,41.14
2023-02-11T19:39:25.072Z,41.60
2023-02-11T19:41:53.733Z,41.40
2023-02-11T19:44:21.791Z,40.77
2023-02-11T19:46:52.942Z,41.17
2023-02-11T19:49:26.651Z,41.48
2023-02-11T19:51:58.382Z,41.84
2023-02-11T19:54:27.413Z,41.72
2023-02-11T19:56:58.042Z,39.99
2023-02-11T19:59:26.190Z,40.48
2023-02-11T20:01:54.498Z,42.31
2023-02-11T20:04:24.462Z,43.61
2023-02-11T20:06:52.451Z,43.44
2023-02-11T20:09:20.508Z,43.14
2023-02-11T20:11:49.572Z,43.55
2023-02-11T20:14:17.699Z,44.52
2023-02-11T20:16:49.735Z,43.75
2023-02-11T20:19:20.621Z,43.60
2023-02-11T20:21:51.732Z,43.95
2023-02-11T20:24:20.534Z,43.28
2023-02-11T20:26:49.376Z,43.94
2023-02-11T20:29:18.374Z,44.77
2023-02-11T20:31:46.768Z,44.24
2023-02-11T20:34:17.208Z,45.01
2023-02-11T20:36:52.114Z,45.00
2023-02-11T20:39:22.564Z,44.56
2023-02-11T20:41:52.079Z,45.25
2023-02-11T20:44:22.539Z,46.27
2023-02-11T20:46:51.306Z,46.25
2023-02-11T20:49:21.785Z,46.48
2023-02-11T20:51:50.044Z,45.72
2023-02-11T20:54:20.360Z,46.61
2023-02-11T20:56:51.369Z,46.89
2023-02-11T20:59:21.320Z,46.23
2023-02-11T21:01:53.757Z,46.66
2023-02-11T21:04:25.218Z,45.47
2023-02-11T21:06:59.472Z,45.23
2023-02-11T21:09:30.912Z,46.67
2023-02-11T21:11:59.078Z,46.65
2023-02-11T21:14:29.401Z,47.79
2023-02-11T21:16:57.723Z,46.81
2023-02-11T21:19:25.989Z,47.56
2023-02-11T21:21:55.341Z,48.44
2023-02-11T21:24:23.988Z,48.39
2023-02-11T21:26:52.107Z,48.35
2023-02-11T21:29:20.226Z,49.21
2023-02-11T21:31:48.297Z,48.93
2023-02-11T21:34:16.415Z,49.41
2023-02-11T21:36:45.408Z,48.96
2023-02-11T21:39:14.105Z,48.92
2023-02-11T21:41:42.214Z,48.04
2023-02-11T21:44:10.275Z,48.46
2023-02-11T21:46:38.336Z,48.29
2023-02-11T21:49:06.449Z,48.41
2023-02-11T21:51:34.506Z,48.25
2023-02-11T21:54:03.339Z,48.51
2023-02-11T21:56:33.511Z,49.32
2023-02-11T21:59:02.545Z,48.14
2023-02-11T22:01:32.815Z,49.52
2023-02-11T22:04:01.423Z,50.10
2023-02-11T22:06:31.685Z,49.51
2023-02-11T22:09:02.952Z,50.66
2023-02-11T22:11:31.005Z,50.59
2023-02-11T22:13:59.441Z,51.03
2023-02-11T22:16:28.507Z,51.00
2023-02-11T22:18:58.858Z,49.51
2023-02-11T22:21:26.977Z,48.77
2023-02-11T22:23:56.612Z,49.78
2023-02-11T22:26:26.711Z,50.58
2023-02-11T22:28:55.209Z,50.65
2023-02-11T22:31:25.870Z,50.80
2023-02-11T22:33:54.101Z,51.45
2023-02-11T22:36:25.222Z,51.19
2023-02-11T22:38:53.883Z,51.25
2023-02-11T22:41:23.580Z,51.54
2023-02-11T22:43:51.497Z,51.32
2023-02-11T22:46:20.142Z,50.89
2023-02-11T22:48:49.215Z,49.75
2023-02-11T22:51:22.986Z,51.05
2023-02-11T22:54:03.043Z,50.87
2023-02-11T22:56:33.037Z,49.86
2023-02-11T22:59:04.738Z,50.28
2023-02-11T23:01:33.813Z,49.91
2023-02-11T23:04:04.381Z,50.32
2023-02-11T23:06:32.749Z,49.43
2023-02-11T23:09:01.376Z,49.95
2023-02-11T23:11:31.289Z,50.56
2023-02-11T23:13:59.318Z,49.90
2023-02-11T23:16:33.583Z,49.12
2023-02-11T23:19:05.321Z,49.57
2023-02-11T23:21:36.667Z,50.26
2023-02-11T23:24:11.946Z,50.17
2023-02-11T23:26:41.266Z,50.84
2023-02-11T23:29:10.304Z,50.66
2023-02-11T23:31:43.522Z,51.12
2023-02-11T23:34:12.736Z,51.31
2023-02-11T23:36:40.660Z,50.75
2023-02-11T23:39:08.629Z,50.44
2023-02-11T23:41:36.435Z,50.17
2023-02-11T23:44:04.405Z,49.79
2023-02-11T23:46:32.384Z,50.05
2023-02-11T23:49:00.465Z,49.91
2023-02-11T23:51:28.493Z,50.49
2023-02-11T23:53:57.357Z,50.56
2023-02-11T23:56:27.839Z,49.84
2023-02-11T23:58:58.812Z,50.44
